Time;durP1;ratioP1;P1;durP2;ratioP2;P2;SDS_P1;SDS_P2;PMS_P1;PMS_P2;Temp;Humidity;BMP_temperature;BMP_pressure;BME280_temperature;BME280_humidity;BME280_pressure;Samples;Min_cycle;Max_cycle;Signal;HPM_P1;HPM_P2
2023/05/12 00:00:01;;;;;;;4.13;2.57;;;;;;;11.16;100.00;98387.06;4926056;29;20227;-65
2023/05/12 00:02:28;;;;;;;7.40;2.37;;;;;;;11.17;100.00;98386.06;4929501;29;20331;-65
2023/05/12 00:04:59;;;;;;;3.37;2.60;;;;;;;11.16;100.00;98387.06;4924916;29;20226;-65
2023/05/12 00:07:26;;;;;;;4.30;2.23;;;;;;;11.16;100.00;98389.66;4930132;29;20765;-64
2023/05/12 00:10:19;;;;;;;2.93;2.40;;;;;;;11.19;100.00;98383.31;4927143;29;20763;-64
2023/05/12 00:12:46;;;;;;;6.50;2.10;;;;;;;11.15;100.00;98389.84;4925087;29;20715;-64
2023/05/12 00:15:13;;;;;;;5.10;2.50;;;;;;;11.12;100.00;98385.78;4927755;29;20238;-64
2023/05/12 00:17:40;;;;;;;5.00;2.30;;;;;;;11.11;100.00;98380.69;4926350;29;20253;-64
2023/05/12 00:20:07;;;;;;;7.57;2.77;;;;;;;11.10;100.00;98382.50;4929248;29;20324;-64
2023/05/12 00:22:34;;;;;;;3.57;2.53;;;;;;;11.06;100.00;98382.00;4928266;29;20230;-64
2023/05/12 00:25:00;;;;;;;4.93;2.47;;;;;;;11.05;100.00;98385.56;4927218;29;20251;-64
2023/05/12 00:27:30;;;;;;;2.63;2.43;;;;;;;11.08;100.00;98374.00;4928468;29;20230;-64
2023/05/12 00:29:59;;;;;;;3.67;1.93;;;;;;;11.10;100.00;98381.66;4926731;29;20233;-65
2023/05/12 00:32:26;;;;;;;3.53;2.33;;;;;;;11.10;100.00;98381.66;4928380;29;20725;-65
2023/05/12 00:35:18;;;;;;;3.60;2.70;;;;;;;11.07;100.00;98377.59;4927579;29;20280;-65
2023/05/12 00:37:44;;;;;;;5.17;2.70;;;;;;;11.08;100.00;98372.19;4926563;29;20250;-65
2023/05/12 00:40:11;;;;;;;3.23;2.67;;;;;;;11.05;100.00;98375.13;4928620;29;20238;-65
2023/05/12 00:42:39;;;;;;;4.73;2.90;;;;;;;11.03;100.00;98373.66;4928568;29;20246;-65
2023/05/12 00:45:08;;;;;;;3.97;2.80;;;;;;;11.04;100.00;98372.69;4925696;29;20227;-65
2023/05/12 00:47:35;;;;;;;3.80;2.60;;;;;;;11.03;100.00;98366.63;4902839;29;20714;-65
2023/05/12 00:50:02;;;;;;;4.07;2.60;;;;;;;11.00;100.00;98366.97;4925278;29;20260;-65
2023/05/12 00:52:29;;;;;;;2.50;2.30;;;;;;;11.06;100.00;98370.75;4919731;29;20233;-65
2023/05/12 00:55:00;;;;;;;4.17;2.50;;;;;;;11.05;100.00;98371.72;4925185;29;20318;-65
2023/05/12 00:57:27;;;;;;;4.10;2.47;;;;;;;11.06;100.00;98371.53;4912182;29;20256;-65
2023/05/12 01:00:01;;;;;;;4.80;2.67;;;;;;;11.03;100.00;98365.84;4909560;29;22434;-65
2023/05/12 01:02:28;;;;;;;3.40;2.80;;;;;;;11.00;100.00;98369.56;4911959;29;20239;-65
2023/05/12 01:04:59;;;;;;;4.37;2.80;;;;;;;11.01;100.00;98368.59;4925845;29;20237;-64
2023/05/12 01:07:27;;;;;;;4.93;2.87;;;;;;;10.99;100.00;98360.09;4911044;29;20588;-64
2023/05/12 01:10:00;;;;;;;3.93;2.70;;;;;;;10.99;100.00;98362.72;4922065;29;20305;-64
2023/05/12 01:12:28;;;;;;;3.97;2.50;;;;;;;10.96;100.00;98360.41;4927087;29;20258;-64
2023/05/12 01:15:01;;;;;;;3.37;2.87;;;;;;;10.93;100.00;98360.72;4908893;29;20250;-64
2023/05/12 01:17:32;;;;;;;3.53;2.60;;;;;;;10.88;100.00;98358.63;4927330;29;20243;-64
2023/05/12 01:20:01;;;;;;;3.33;2.80;;;;;;;10.89;100.00;98367.25;4925362;28;20721;-64
2023/05/12 01:22:30;;;;;;;3.93;2.50;;;;;;;10.93;100.00;98363.34;4904682;29;20776;-64
2023/05/12 01:25:03;;;;;;;4.90;2.83;;;;;;;10.90;100.00;98368.88;4924148;29;20424;-64
2023/05/12 01:27:34;;;;;;;3.67;3.00;;;;;;;10.92;100.00;98367.75;4904701;29;20237;-65
2023/05/12 01:30:04;;;;;;;4.77;3.07;;;;;;;10.90;100.00;98366.28;4924733;29;20265;-65
2023/05/12 01:32:34;;;;;;;2.53;2.33;;;;;;;10.90;100.00;98368.88;4928661;29;20240;-65
2023/05/12 01:35:01;;;;;;;5.43;3.50;;;;;;;10.90;100.00;98363.66;4926329;29;20321;-65
2023/05/12 01:37:30;;;;;;;3.43;2.57;;;;;;;10.91;100.00;98371.34;4903091;29;20234;-65
2023/05/12 01:40:02;;;;;;;6.33;3.00;;;;;;;10.94;100.00;98370.22;4925021;29;20248;-65
2023/05/12 01:42:29;;;;;;;7.17;3.37;;;;;;;10.93;100.00;98372.00;4911541;29;20326;-65
2023/05/12 01:45:00;;;;;;;6.97;2.83;;;;;;;10.96;100.00;98375.28;4924792;29;20294;-65
2023/05/12 01:47:28;;;;;;;4.43;2.90;;;;;;;10.97;100.00;98375.09;4915932;29;20596;-65
2023/05/12 01:50:06;;;;;;;3.20;2.80;;;;;;;10.98;100.00;98375.94;4925436;28;20981;-65
2023/05/12 01:52:33;;;;;;;4.73;3.20;;;;;;;11.00;100.00;98374.78;4911468;29;20240;-65
2023/05/12 01:54:59;;;;;;;3.00;2.70;;;;;;;11.00;100.00;98380.00;4925198;29;21359;-65
2023/05/12 01:57:28;;;;;;;4.50;2.87;;;;;;;11.03;100.00;98378.91;4899233;29;20243;-65
2023/05/12 02:00:01;;;;;;;3.93;3.10;;;;;;;11.05;100.00;98380.34;4923907;29;20227;-65
2023/05/12 02:02:30;;;;;;;4.23;3.07;;;;;;;11.02;100.00;98378.06;4927546;29;20352;-65
2023/05/12 02:04:59;;;;;;;7.17;3.50;;;;;;;11.03;100.00;98373.66;4924623;29;20231;-65
2023/05/12 02:07:30;;;;;;;3.40;3.07;;;;;;;11.02;100.00;98375.44;4928695;29;20262;-65
2023/05/12 02:09:59;;;;;;;5.03;3.00;;;;;;;11.08;100.00;98371.41;4925801;29;20266;-65
2023/05/12 02:12:26;;;;;;;3.80;2.93;;;;;;;11.06;100.00;98375.97;4911418;29;20241;-65
2023/05/12 02:15:19;;;;;;;3.50;3.20;;;;;;;11.07;100.00;98372.38;4925825;29;20285;-65
2023/05/12 02:17:47;;;;;;;5.60;2.83;;;;;;;11.07;100.00;98367.16;4923239;29;20238;-65
2023/05/12 02:20:15;;;;;;;4.50;3.20;;;;;;;11.08;100.00;98374.81;4926164;28;20274;-65
2023/05/12 02:22:43;;;;;;;3.57;3.00;;;;;;;11.11;100.00;98368.47;4923541;29;20234;-65
2023/05/12 02:25:09;;;;;;;5.07;3.27;;;;;;;11.08;100.00;98359.13;4911058;29;20235;-65
2023/05/12 02:27:36;;;;;;;2.67;2.47;;;;;;;11.09;100.00;98373.03;4910767;29;20234;-66
2023/05/12 02:30:03;;;;;;;3.83;3.20;;;;;;;11.08;100.00;98361.75;4925030;29;20799;-66
2023/05/12 02:32:33;;;;;;;6.67;3.40;;;;;;;11.12;100.00;98364.03;4910526;29;20286;-66
2023/05/12 02:34:59;;;;;;;4.93;2.77;;;;;;;11.12;100.00;98370.09;4908030;29;20293;-65
2023/05/12 02:37:27;;;;;;;6.60;3.53;;;;;;;11.13;100.00;98365.69;4926746;29;20305;-65
2023/05/12 02:39:59;;;;;;;4.93;3.33;;;;;;;11.14;100.00;98367.31;4922917;29;20227;-65
2023/05/12 02:42:27;;;;;;;3.93;3.57;;;;;;;11.17;100.00;98365.19;4926406;29;20613;-65
2023/05/12 02:44:59;;;;;;;3.63;3.27;;;;;;;11.16;100.00;98363.53;4921655;29;20228;-65
2023/05/12 02:47:25;;;;;;;7.70;4.50;;;;;;;11.18;100.00;98366.00;4927895;29;20749;-65
2023/05/12 02:50:19;;;;;;;4.00;2.90;;;;;;;11.19;100.00;98359.81;4925025;29;20234;-65
2023/05/12 02:52:46;;;;;;;3.97;3.20;;;;;;;11.20;100.00;98359.63;4923168;29;20235;-65
2023/05/12 02:55:12;;;;;;;6.80;3.30;;;;;;;11.21;100.00;98360.47;4926585;28;20235;-65
2023/05/12 02:57:39;;;;;;;4.73;3.10;;;;;;;11.25;100.00;98361.78;4910320;29;20235;-65
2023/05/12 03:00:06;;;;;;;4.37;3.47;;;;;;;11.24;100.00;98360.16;4923379;28;20235;-65
2023/05/12 03:05:20;;;;;;;5.90;4.77;;;;;;;11.26;100.00;98362.59;5000645;23;20232;-66
2023/05/12 03:07:48;;;;;;;7.13;5.40;;;;;;;11.23;100.00;98363.72;4903929;29;20621;-66
2023/05/12 03:10:15;;;;;;;8.13;6.07;;;;;;;11.22;100.00;98362.09;4898418;29;20724;-65
2023/05/12 03:12:42;;;;;;;14.03;10.60;;;;;;;11.21;100.00;98363.06;4890047;29;20627;-65
2023/05/12 03:15:10;;;;;;;14.40;10.10;;;;;;;11.25;100.00;98363.56;4880814;29;20239;-65
2023/05/12 03:17:36;;;;;;;16.57;11.07;;;;;;;11.22;100.00;98364.72;4899224;29;20330;-65
2023/05/12 03:20:04;;;;;;;17.37;11.13;;;;;;;11.18;100.00;98366.81;4893527;29;20691;-65
2023/05/12 03:22:32;;;;;;;16.50;10.87;;;;;;;11.18;100.00;98361.59;4899675;29;20228;-66
2023/05/12 03:24:59;;;;;;;23.33;12.30;;;;;;;11.14;100.00;98359.47;4878196;29;20266;-65
2023/05/12 03:27:26;;;;;;;16.53;12.13;;;;;;;11.13;100.00;98361.25;4894457;29;20235;-65
2023/05/12 03:30:00;;;;;;;17.83;13.02;;;;;;;11.12;100.00;98359.66;4894894;29;20452;-65
2023/05/12 03:32:27;;;;;;;16.47;11.23;;;;;;;11.18;100.00;98363.41;5072193;23;20306;-65
2023/05/12 03:34:59;;;;;;;18.50;11.20;;;;;;;11.18;100.00;98366.81;4893748;29;20240;-65
2023/05/12 03:37:26;;;;;;;18.90;11.60;;;;;;;11.21;100.00;98363.88;4898782;29;20598;-65
2023/05/12 03:40:18;;;;;;;20.33;12.07;;;;;;;11.19;100.00;98362.41;4897239;29;20230;-65
2023/05/12 03:42:45;;;;;;;15.93;11.90;;;;;;;11.18;100.00;98364.19;4897439;29;20227;-65
2023/05/12 03:45:12;;;;;;;18.67;12.00;;;;;;;11.15;100.00;98355.88;4885304;29;20226;-65
2023/05/12 03:47:39;;;;;;;17.97;12.20;;;;;;;11.13;100.00;98361.25;4899973;29;20223;-65
2023/05/12 03:50:07;;;;;;;18.97;12.27;;;;;;;11.14;100.00;98357.66;4878607;29;20699;-65
2023/05/12 03:52:37;;;;;;;19.40;12.60;;;;;;;11.18;100.00;98358.19;4881555;29;20231;-65
2023/05/12 03:55:04;;;;;;;17.47;12.70;;;;;;;11.18;100.00;98356.38;4893626;29;20239;-65
2023/05/12 03:57:33;;;;;;;19.93;11.77;;;;;;;11.20;100.00;98351.00;4897580;29;20220;-65
2023/05/12 04:00:00;;;;;;;17.63;12.07;;;;;;;11.22;100.00;98356.88;4882150;29;20231;-65
2023/05/12 04:02:26;;;;;;;18.50;12.67;;;;;;;11.22;100.00;98351.66;4898378;29;20227;-65
2023/05/12 04:04:59;;;;;;;18.00;13.17;;;;;;;11.22;100.00;98352.44;4897090;29;20241;-65
2023/05/12 04:07:26;;;;;;;19.93;14.07;;;;;;;11.22;100.00;98352.44;4886031;29;20239;-65
2023/05/12 04:10:17;;;;;;;21.20;14.00;;;;;;;11.23;100.00;98348.06;4896946;29;20243;-65
2023/05/12 04:12:45;;;;;;;20.53;14.93;;;;;;;11.23;100.00;98351.47;4893006;29;20690;-65
2023/05/12 04:15:13;;;;;;;20.10;13.97;;;;;;;11.25;100.00;98346.09;4884948;29;20228;-65
2023/05/12 04:17:40;;;;;;;23.50;14.47;;;;;;;11.23;100.00;98353.28;4896115;29;20243;-65
2023/05/12 04:20:08;;;;;;;18.60;13.77;;;;;;;11.20;100.00;98356.22;4882422;29;20692;-65
2023/05/12 04:22:35;;;;;;;20.70;14.20;;;;;;;11.22;100.00;98354.25;4898793;29;20246;-65
2023/05/12 04:25:01;;;;;;;22.13;14.43;;;;;;;11.26;100.00;98352.13;4880080;29;20243;-65
2023/05/12 04:27:28;;;;;;;22.60;14.90;;;;;;;11.25;100.00;98356.56;4899195;29;20226;-65
2023/05/12 04:30:00;;;;;;;20.77;14.87;;;;;;;11.25;100.00;98356.56;4880381;29;20718;-65
2023/05/12 04:32:27;;;;;;;21.97;15.70;;;;;;;11.27;100.00;98357.22;4897208;29;20248;-65
2023/05/12 04:34:59;;;;;;;22.57;15.67;;;;;;;11.26;100.00;98355.56;4886573;29;21717;-65
2023/05/12 04:37:26;;;;;;;26.10;15.83;;;;;;;11.30;100.00;98361.28;4896873;29;20249;-65
2023/05/12 04:39:59;;;;;;;24.30;15.77;;;;;;;11.30;100.00;98356.06;4892122;29;20231;-65
2023/05/12 04:42:26;;;;;;;22.83;14.70;;;;;;;11.34;100.00;98363.44;4898227;29;20294;-65
2023/05/12 04:45:01;;;;;;;25.23;15.37;;;;;;;11.33;100.00;98361.78;4898655;29;20243;-65
2023/05/12 04:47:28;;;;;;;27.20;16.63;;;;;;;11.35;100.00;98369.44;4893987;29;20232;-65
2023/05/12 04:49:59;;;;;;;30.23;19.43;;;;;;;11.28;100.00;98364.06;4882468;29;20252;-65
2023/05/12 04:52:25;;;;;;;27.03;17.63;;;;;;;11.29;100.00;98367.47;4898786;29;20240;-65
2023/05/12 04:55:17;;;;;;;24.67;16.77;;;;;;;11.28;100.00;98366.69;4901437;29;20238;-65
2023/05/12 04:57:44;;;;;;;25.07;15.97;;;;;;;11.30;100.00;98375.19;4883654;29;20243;-65
2023/05/12 05:00:13;;;;;;;21.60;15.13;;;;;;;11.33;100.00;98379.25;4885547;29;20720;-65
2023/05/12 05:02:42;;;;;;;27.60;17.93;;;;;;;11.40;100.00;98376.81;4884602;29;20276;-65
2023/05/12 05:05:09;;;;;;;26.57;17.57;;;;;;;11.43;100.00;98384.34;4902695;29;20254;-65
2023/05/12 05:07:36;;;;;;;27.50;17.63;;;;;;;11.39;100.00;98380.41;4900379;29;20240;-65
2023/05/12 05:10:03;;;;;;;28.80;18.40;;;;;;;11.40;100.00;98384.66;4882641;29;20240;-65
2023/05/12 05:12:30;;;;;;;30.43;18.93;;;;;;;11.41;100.00;98378.44;4902248;29;20276;-65
2023/05/12 05:14:59;;;;;;;24.20;16.07;;;;;;;11.46;100.00;98384.00;4899321;29;20232;-65
2023/05/12 05:17:28;;;;;;;24.73;16.43;;;;;;;11.51;100.00;98384.34;4891922;29;20641;-65
2023/05/12 05:19:59;;;;;;;24.53;16.70;;;;;;;11.56;100.00;98389.91;4882952;29;20232;-65
2023/05/12 05:22:29;;;;;;;24.80;17.37;;;;;;;11.65;100.00;98386.31;4892463;29;20240;-65
2023/05/12 05:24:59;;;;;;;25.90;16.90;;;;;;;11.74;100.00;98394.13;4883540;29;20236;-65
2023/05/12 05:27:26;;;;;;;24.47;16.17;;;;;;;11.79;100.00;98389.22;4886436;29;20625;-65
2023/05/12 05:29:59;;;;;;;25.47;16.20;;;;;;;11.87;100.00;98394.44;4896273;29;20236;-65
2023/05/12 05:32:25;;;;;;;24.17;16.50;;;;;;;11.95;100.00;98402.28;4898337;29;20244;-65
2023/05/12 05:35:18;;;;;;;23.50;16.93;;;;;;;12.03;100.00;98406.75;4896666;29;20263;-65
2023/05/12 05:37:49;;;;;;;25.17;16.50;;;;;;;12.07;100.00;98397.59;4881437;29;20277;-65
2023/05/12 05:40:16;;;;;;;22.10;14.80;;;;;;;12.15;100.00;98401.97;4885424;29;20237;-65
2023/05/12 05:42:42;;;;;;;23.97;17.23;;;;;;;12.21;100.00;98410.94;4881565;29;20238;-65
2023/05/12 05:45:11;;;;;;;23.77;15.30;;;;;;;12.30;100.00;98404.72;4884857;29;20244;-65
2023/05/12 05:47:38;;;;;;;24.27;15.37;;;;;;;12.30;100.00;98407.31;4896488;29;20335;-65
2023/05/12 05:50:07;;;;;;;22.83;15.17;;;;;;;12.42;100.00;98399.13;4898303;29;20227;-65
2023/05/12 05:52:37;;;;;;;27.20;16.33;;;;;;;12.46;100.00;98400.41;4885403;29;20237;-65
2023/05/12 05:55:05;;;;;;;25.50;15.03;;;;;;;12.50;100.00;98399.09;4895685;29;20697;-65
2023/05/12 05:57:31;;;;;;;21.10;14.17;;;;;;;12.55;100.00;98402.84;4884219;29;20661;-65
2023/05/12 05:59:59;;;;;;;20.10;13.67;;;;;;;12.65;100.00;98405.25;4885060;29;20303;-65
2023/05/12 06:02:26;;;;;;;17.83;13.23;;;;;;;12.63;100.00;98406.44;4886377;29;20228;-65
2023/05/12 06:05:00;;;;;;;20.27;13.93;;;;;;;12.60;100.00;98401.53;4880538;29;20221;-65
2023/05/12 06:07:26;;;;;;;20.43;14.33;;;;;;;12.52;100.00;98407.59;4885854;29;20229;-65
2023/05/12 06:10:00;;;;;;;18.93;12.97;;;;;;;12.50;100.00;98410.41;4879858;29;20243;-65
2023/05/12 06:12:27;;;;;;;21.37;14.00;;;;;;;12.52;100.00;98407.59;4900339;29;20585;-65
2023/05/12 06:14:59;;;;;;;21.10;13.93;;;;;;;12.56;100.00;98403.66;4882680;29;20566;-65
2023/05/12 06:17:26;;;;;;;22.73;14.73;;;;;;;12.60;100.00;98404.16;4901084;29;20315;-65
2023/05/12 06:20:17;;;;;;;23.27;15.30;;;;;;;12.44;100.00;98416.31;4896328;29;20231;-65
2023/05/12 06:22:45;;;;;;;19.37;13.27;;;;;;;12.49;100.00;98414.00;4882615;29;20791;-65
2023/05/12 06:25:13;;;;;;;24.13;13.97;;;;;;;12.53;100.00;98415.31;4900760;29;20321;-65
2023/05/12 06:27:42;;;;;;;26.37;14.80;;;;;;;12.51;100.00;98419.06;4902486;29;20218;-65
2023/05/12 06:30:09;;;;;;;21.83;14.43;;;;;;;12.58;100.00;98427.06;4887673;29;20250;-65
2023/05/12 06:32:36;;;;;;;20.17;14.20;;;;;;;12.61;100.00;98416.25;4881009;29;20229;-65
2023/05/12 06:35:03;;;;;;;22.30;14.53;;;;;;;12.72;100.00;98423.72;4879449;29;20231;-65
2023/05/12 06:37:29;;;;;;;23.87;15.83;;;;;;;12.75;100.00;98428.63;4883960;29;20245;-65
2023/05/12 06:40:00;;;;;;;22.77;14.90;;;;;;;12.86;100.00;98427.44;4896408;29;20226;-65
2023/05/12 06:42:28;;;;;;;22.37;14.50;;;;;;;12.89;100.00;98429.72;4899187;29;20237;-65
2023/05/12 06:45:03;;;;;;;21.60;15.57;;;;;;;12.91;100.00;98422.50;4878167;29;20582;-65
2023/05/12 06:47:33;;;;;;;22.73;14.50;;;;;;;12.96;100.00;98430.69;4883782;29;20435;-65
2023/05/12 06:50:00;;;;;;;18.73;12.97;;;;;;;12.91;100.00;98432.16;4897449;29;21301;-65
2023/05/12 06:52:26;;;;;;;16.27;12.70;;;;;;;12.90;100.00;98438.38;4876167;29;20309;-65
2023/05/12 06:54:59;;;;;;;18.57;12.23;;;;;;;12.82;100.00;98437.44;4876527;29;20223;-65
2023/05/12 06:57:26;;;;;;;17.93;11.77;;;;;;;12.77;100.00;98439.75;4882005;29;20228;-65
2023/05/12 07:00:19;;;;;;;14.63;10.97;;;;;;;12.81;100.00;98435.81;4895959;29;20247;-65
2023/05/12 07:02:46;;;;;;;17.40;11.47;;;;;;;12.86;100.00;98435.31;4894010;29;20315;-65
2023/05/12 07:05:13;;;;;;;17.67;11.77;;;;;;;12.88;100.00;98435.94;4895436;29;20256;-65
2023/05/12 07:07:40;;;;;;;19.90;11.93;;;;;;;12.91;100.00;98435.59;4896900;29;20669;-65
2023/05/12 07:10:08;;;;;;;17.20;11.10;;;;;;;12.96;100.00;98435.91;4894533;29;20242;-65
2023/05/12 07:12:34;;;;;;;18.63;11.33;;;;;;;12.96;100.00;98437.72;4899968;29;20237;-65
2023/05/12 07:15:01;;;;;;;18.10;11.87;;;;;;;12.98;100.00;98430.50;4892925;29;20239;-65
2023/05/12 07:17:29;;;;;;;15.27;11.27;;;;;;;13.10;100.00;98433.56;4897047;29;20244;-65
2023/05/12 07:19:59;;;;;;;16.87;11.90;;;;;;;13.16;100.00;98435.50;4894592;29;20238;-64
2023/05/12 07:22:28;;;;;;;15.23;10.03;;;;;;;13.29;100.00;98437.53;4898214;29;20249;-65
2023/05/12 07:24:59;;;;;;;14.63;10.87;;;;;;;13.37;100.00;98432.25;4880571;29;20221;-65
2023/05/12 07:27:26;;;;;;;13.70;10.30;;;;;;;13.57;100.00;98434.44;4899878;29;20242;-66
2023/05/12 07:30:18;;;;;;;15.50;10.50;;;;;;;13.90;100.00;98426.31;4895914;29;20260;-66
2023/05/12 07:32:46;;;;;;;13.87;9.83;;;;;;;14.21;100.00;98430.63;4895339;29;20237;-66
2023/05/12 07:35:12;;;;;;;14.27;10.10;;;;;;;14.39;100.00;98434.72;4896400;29;20253;-66
2023/05/12 07:37:40;;;;;;;15.23;9.50;;;;;;;14.67;100.00;98434.09;4898397;29;20601;-66
2023/05/12 07:40:08;;;;;;;16.43;9.97;;;;;;;14.88;97.19;98434.19;4894225;29;20323;-66
2023/05/12 07:42:34;;;;;;;13.73;10.30;;;;;;;14.85;94.64;98436.38;4895104;29;20247;-66
2023/05/12 07:45:01;;;;;;;15.07;9.90;;;;;;;14.82;96.51;98434.09;4896023;29;20749;-66
2023/05/12 07:47:28;;;;;;;12.90;9.77;;;;;;;14.94;98.38;98430.00;4898506;29;20307;-66
2023/05/12 07:50:01;;;;;;;12.60;10.03;;;;;;;14.84;95.33;98437.38;4898508;29;20225;-65
2023/05/12 07:52:27;;;;;;;13.80;8.90;;;;;;;14.86;95.35;98430.13;4901539;29;20230;-65
2023/05/12 07:54:59;;;;;;;14.47;9.37;;;;;;;14.82;91.61;98429.69;4894113;29;20647;-65
2023/05/12 07:57:26;;;;;;;13.93;9.00;;;;;;;14.75;95.69;98437.47;4898936;29;20554;-65
2023/05/12 08:00:18;;;;;;;13.73;9.47;;;;;;;14.42;95.77;98429.09;4895965;29;20234;-65
2023/05/12 08:02:45;;;;;;;11.23;8.67;;;;;;;14.34;97.71;98430.00;4895831;29;20233;-65
2023/05/12 08:05:13;;;;;;;10.90;8.97;;;;;;;14.21;98.96;98432.44;4898652;29;20234;-65
2023/05/12 08:07:42;;;;;;;12.87;8.60;;;;;;;14.25;99.61;98424.03;4895906;29;20247;-65
2023/05/12 08:10:10;;;;;;;10.90;8.60;;;;;;;14.22;100.00;98432.25;4896033;29;20271;-65
2023/05/12 08:12:37;;;;;;;10.47;8.03;;;;;;;14.36;100.00;98430.63;4899014;29;20272;-65
2023/05/12 08:15:04;;;;;;;9.80;7.60;;;;;;;14.48;98.79;98428.38;4892257;29;20228;-65
2023/05/12 08:17:30;;;;;;;8.83;7.20;;;;;;;14.54;98.58;98430.28;4896832;29;20229;-65
2023/05/12 08:19:59;;;;;;;9.47;6.87;;;;;;;14.71;96.35;98438.81;4900472;29;20247;-65
2023/05/12 08:22:27;;;;;;;12.77;7.03;;;;;;;14.74;94.61;98435.84;4903037;29;20718;-65
2023/05/12 08:24:59;;;;;;;9.17;7.40;;;;;;;15.01;91.73;98435.34;4882593;29;20247;-65
2023/05/12 08:27:25;;;;;;;10.90;7.30;;;;;;;14.79;94.84;98439.72;4904277;29;20727;-65
2023/05/12 08:30:17;;;;;;;8.73;7.00;;;;;;;14.98;96.22;98438.34;4900480;29;20237;-65
2023/05/12 08:32:44;;;;;;;8.83;6.83;;;;;;;14.89;93.32;98435.00;4899782;29;20786;-65
2023/05/12 08:35:11;;;;;;;8.83;6.77;;;;;;;14.84;92.08;98440.00;4906348;29;20240;-65
2023/05/12 08:37:40;;;;;;;8.60;6.37;;;;;;;14.93;91.19;98438.06;4903935;29;20230;-65
2023/05/12 08:40:16;;;;;;;8.57;5.83;;;;;;;14.87;93.36;98443.06;4898792;29;20245;-65
2023/05/12 08:42:44;;;;;;;7.57;6.27;;;;;;;14.83;93.18;98441.00;4899124;29;20248;-65
2023/05/12 08:45:11;;;;;;;7.00;6.00;;;;;;;14.87;94.31;98434.38;4901866;29;20256;-65
2023/05/12 08:47:38;;;;;;;8.07;5.97;;;;;;;14.81;93.60;98443.81;4900961;29;20238;-65
2023/05/12 08:50:06;;;;;;;6.80;5.53;;;;;;;15.03;93.68;98443.84;4896319;29;20314;-65
2023/05/12 08:52:35;;;;;;;7.03;6.20;;;;;;;15.11;92.98;98442.94;4902923;29;20670;-65
2023/05/12 08:55:04;;;;;;;7.80;5.90;;;;;;;15.25;93.68;98449.16;4898492;29;20813;-65
2023/05/12 08:57:31;;;;;;;9.03;6.03;;;;;;;15.16;91.18;98445.84;4899596;29;20237;-65
2023/05/12 09:00:03;;;;;;;7.90;5.50;;;;;;;15.09;90.64;98451.00;4898005;29;20315;-65
2023/05/12 09:02:32;;;;;;;6.17;4.83;;;;;;;15.07;91.84;98447.75;4886660;29;20233;-65
2023/05/12 09:04:59;;;;;;;6.13;5.50;;;;;;;15.03;92.71;98443.84;4894294;29;20245;-65
2023/05/12 09:07:27;;;;;;;6.17;5.40;;;;;;;14.97;94.53;98448.03;4901750;29;20636;-65
2023/05/12 09:10:02;;;;;;;7.77;5.23;;;;;;;14.93;92.37;98443.31;4896884;29;20748;-64
2023/05/12 09:12:36;;;;;;;6.80;4.97;;;;;;;14.87;94.93;98443.06;4901363;29;20235;-64
2023/05/12 09:15:06;;;;;;;6.00;5.03;;;;;;;15.03;93.59;98443.84;4898330;29;20736;-64
2023/05/12 09:17:33;;;;;;;5.33;4.20;;;;;;;14.88;94.90;98443.88;4899631;29;20644;-64
2023/05/12 09:20:00;;;;;;;9.40;3.87;;;;;;;14.65;91.92;98444.78;4897749;29;20249;-64
2023/05/12 09:22:30;;;;;;;6.33;3.93;;;;;;;14.72;92.00;98444.91;4901190;29;20229;-64
2023/05/12 09:24:59;;;;;;;6.30;3.97;;;;;;;14.65;90.37;98449.22;4897782;29;20776;-65
2023/05/12 09:27:27;;;;;;;5.93;4.00;;;;;;;14.65;89.67;98444.78;4901341;29;20232;-65
2023/05/12 09:30:00;;;;;;;4.73;3.93;;;;;;;14.83;92.26;98443.63;4897516;29;20238;-65
2023/05/12 09:32:31;;;;;;;6.90;4.10;;;;;;;14.91;92.96;98441.69;4899488;29;20320;-65
2023/05/12 09:35:03;;;;;;;4.73;3.40;;;;;;;15.10;91.40;98442.13;4896892;29;20226;-65
2023/05/12 09:37:31;;;;;;;6.97;3.73;;;;;;;15.26;90.15;98442.91;4900525;29;20225;-65
2023/05/12 09:40:00;;;;;;;3.80;3.20;;;;;;;15.37;89.13;98452.13;4880496;29;20320;-65
2023/05/12 09:42:29;;;;;;;5.53;3.37;;;;;;;15.51;87.97;98443.34;4900933;29;20243;-65
2023/05/12 09:45:02;;;;;;;3.70;3.13;;;;;;;15.42;88.82;98452.38;4881439;29;20258;-65
2023/05/12 09:47:34;;;;;;;6.07;3.10;;;;;;;15.84;86.42;98453.38;4899690;29;20327;-65
2023/05/12 09:50:02;;;;;;;3.83;2.73;;;;;;;16.03;86.88;98456.41;4895301;29;20245;-65
2023/05/12 09:52:30;;;;;;;5.53;3.90;;;;;;;16.23;85.85;98452.13;4899634;29;20284;-65
2023/05/12 09:55:10;;;;;;;6.03;4.50;;;;;;;16.12;85.75;98450.00;4896550;29;20319;-65
2023/05/12 09:57:40;;;;;;;5.67;4.30;;;;;;;16.33;84.34;98446.50;4900727;29;20227;-65
2023/05/12 10:00:12;;;;;;;4.77;4.30;;;;;;;16.56;85.22;98450.69;4896115;29;20348;-63
2023/05/12 10:02:41;;;;;;;6.13;4.80;;;;;;;16.68;84.78;98454.41;4901034;29;20250;-63
2023/05/12 10:05:13;;;;;;;5.90;4.60;;;;;;;16.86;83.72;98460.16;4897512;29;20269;-63
2023/05/12 10:07:41;;;;;;;6.70;5.10;;;;;;;16.95;80.44;98459.81;4898301;29;20236;-64
2023/05/12 10:10:09;;;;;;;9.43;5.20;;;;;;;16.92;81.59;98456.75;4898339;29;20239;-62
2023/05/12 10:12:36;;;;;;;5.70;5.10;;;;;;;17.00;80.65;98455.78;4900042;29;20248;-65
2023/05/12 10:15:03;;;;;;;8.50;4.70;;;;;;;16.78;80.91;98446.13;4897332;29;20240;-63
2023/05/12 10:17:31;;;;;;;7.57;5.53;;;;;;;15.85;85.42;98449.75;4900552;29;20237;-65
2023/05/12 10:20:00;;;;;;;5.30;4.80;;;;;;;16.06;84.52;98448.13;4896455;29;20232;-65
2023/05/12 10:22:28;;;;;;;5.40;4.33;;;;;;;15.88;86.30;98445.97;4900898;29;20832;-60
2023/05/12 10:25:01;;;;;;;6.17;4.90;;;;;;;15.61;83.24;98443.88;4887268;29;20315;-64
2023/05/12 10:27:28;;;;;;;5.03;4.53;;;;;;;15.30;86.06;98447.63;4899823;29;20241;-62
2023/05/12 10:30:01;;;;;;;5.27;4.77;;;;;;;15.01;88.50;98441.41;4897301;29;20241;-63
2023/05/12 10:32:28;;;;;;;7.93;5.20;;;;;;;14.85;92.18;98445.06;4899618;29;20239;-63
2023/05/12 10:35:09;;;;;;;7.93;6.30;;;;;;;14.63;90.65;98438.09;4896433;29;20225;-63
2023/05/12 10:37:36;;;;;;;8.03;6.27;;;;;;;14.66;94.99;98445.59;4900100;29;20283;-64
2023/05/12 10:40:05;;;;;;;11.00;6.40;;;;;;;14.20;93.58;98442.13;4897128;29;20264;-64
2023/05/12 10:42:38;;;;;;;7.60;5.63;;;;;;;14.47;94.10;98438.06;4898690;29;20245;-64
2023/05/12 10:45:16;;;;;;;9.33;5.60;;;;;;;14.53;92.17;98441.78;4897103;29;20233;-64
2023/05/12 10:47:43;;;;;;;7.47;5.43;;;;;;;14.63;96.83;98433.63;4897665;29;20233;-62
2023/05/12 10:50:13;;;;;;;7.40;5.73;;;;;;;14.70;94.10;98439.03;4897499;29;20230;-63
2023/05/12 10:52:40;;;;;;;6.07;5.10;;;;;;;14.91;94.93;98438.25;4897854;29;20610;-63
2023/05/12 10:55:12;;;;;;;6.43;4.63;;;;;;;15.03;92.12;98436.78;4896811;29;20615;-63
2023/05/12 10:57:49;;;;;;;8.77;4.60;;;;;;;15.26;93.29;98435.00;4899465;29;20559;-63
2023/05/12 11:00:16;;;;;;;5.23;4.73;;;;;;;15.38;92.03;98441.41;4895073;29;20315;-63
2023/05/12 11:02:49;;;;;;;7.43;5.43;;;;;;;15.46;89.62;98436.03;4897015;29;20257;-63
2023/05/12 11:05:17;;;;;;;6.07;4.60;;;;;;;15.81;88.13;98437.97;4899153;29;20218;-65
2023/05/12 11:07:48;;;;;;;7.07;3.90;;;;;;;16.01;88.32;98443.41;4896068;29;20290;-64
2023/05/12 11:10:15;;;;;;;4.90;4.40;;;;;;;16.27;86.46;98444.63;4899504;29;20310;-64
2023/05/12 11:12:43;;;;;;;4.47;3.83;;;;;;;16.27;83.41;98449.09;4895429;29;20230;-64
2023/05/12 11:15:11;;;;;;;5.23;3.80;;;;;;;15.98;86.66;98446.44;4898624;29;20246;-64
2023/05/12 11:17:40;;;;;;;4.80;3.23;;;;;;;16.11;87.16;98450.19;4897839;29;20232;-65
2023/05/12 11:20:09;;;;;;;4.73;4.23;;;;;;;15.97;85.99;98447.44;4896453;29;20237;-64
2023/05/12 11:22:40;;;;;;;4.40;3.43;;;;;;;16.08;85.42;98452.19;4899484;29;20259;-64
2023/05/12 11:25:10;;;;;;;5.23;4.33;;;;;;;15.90;82.87;98449.22;4896553;29;20255;-64
2023/05/12 11:27:41;;;;;;;4.43;4.03;;;;;;;15.84;84.36;98447.31;4899887;29;20307;-64
2023/05/12 11:30:09;;;;;;;5.53;4.13;;;;;;;15.90;84.46;98452.66;4896328;29;20227;-64
2023/05/12 11:32:36;;;;;;;15.47;14.13;;;;;;;15.41;84.53;98442.84;4898100;29;20222;-64
2023/05/12 11:35:13;;;;;;;5.63;3.93;;;;;;;15.41;84.31;98456.00;4895016;29;20247;-64